Time;durP1;ratioP1;P1;durP2;ratioP2;P2;SDS_P1;SDS_P2;PMS_P1;PMS_P2;Temp;Humidity;BMP_temperature;BMP_pressure;BME280_temperature;BME280_humidity;BME280_pressure;Samples;Min_cycle;Max_cycle;Signal;HPM_P1;HPM_P2
2022/07/25 00:01:43;;;;;;;0.20;0.20;;;24.20;64.40;;;;;;4947871;29;20078;-91
2022/07/25 00:04:10;;;;;;;0.20;0.20;;;24.20;64.70;;;;;;4929657;29;20534;-91
2022/07/25 00:06:39;;;;;;;7.03;0.35;;;24.10;64.90;;;;;;4947548;29;20043;-90
2022/07/25 00:09:05;;;;;;;0.75;0.60;;;24.00;65.20;;;;;;4946225;29;20034;-88
2022/07/25 00:11:31;;;;;;;0.70;0.57;;;23.90;65.50;;;;;;4946853;28;20407;-89
2022/07/25 00:13:56;;;;;;;0.23;0.13;;;23.90;65.70;;;;;;4930630;29;20039;-88
2022/07/25 00:16:22;;;;;;;0.10;0.10;;;23.80;65.80;;;;;;4948583;29;20719;-91
2022/07/25 00:18:48;;;;;;;0.53;0.30;;;23.80;66.20;;;;;;4951238;29;20058;-92
2022/07/25 00:21:14;;;;;;;0.20;0.20;;;23.70;66.20;;;;;;4948231;29;20058;-90
2022/07/25 00:23:39;;;;;;;0.93;0.53;;;23.70;66.60;;;;;;4949856;29;20066;-90
2022/07/25 00:26:05;;;;;;;0.67;0.30;;;23.60;66.80;;;;;;4950014;29;20055;-89
2022/07/25 00:28:31;;;;;;;1.73;0.63;;;23.60;66.70;;;;;;4947932;29;20042;-90
2022/07/25 00:30:57;;;;;;;0.38;0.15;;;23.60;66.60;;;;;;4949698;29;20081;-89
2022/07/25 00:33:22;;;;;;;0.67;0.30;;;23.50;66.70;;;;;;4949228;29;20039;-91
2022/07/25 00:35:48;;;;;;;0.20;0.10;;;23.60;66.40;;;;;;4949752;29;20047;-88
2022/07/25 00:38:14;;;;;;;0.17;0.17;;;23.00;69.20;;;;;;4945112;29;20028;-88
2022/07/25 00:40:39;;;;;;;0.27;0.27;;;23.20;68.10;;;;;;4947146;29;20725;-88
2022/07/25 00:43:05;;;;;;;0.10;0.10;;;23.00;69.70;;;;;;4931871;29;20443;-88
2022/07/25 00:45:31;;;;;;;0.57;0.53;;;22.80;69.70;;;;;;4929444;29;20031;-88
2022/07/25 00:47:56;;;;;;;0.60;0.50;;;22.70;70.30;;;;;;4928996;29;20035;-89
2022/07/25 00:50:22;;;;;;;0.40;0.40;;;22.70;70.10;;;;;;4946946;29;20035;-86
2022/07/25 00:52:48;;;;;;;0.10;0.10;;;22.70;69.90;;;;;;4929534;29;20031;-86
2022/07/25 00:55:14;;;;;;;0.00;0.00;;;22.90;69.50;;;;;;4929110;29;20126;-86
2022/07/25 00:57:40;;;;;;;0.32;0.20;;;23.00;68.80;;;;;;4944849;29;20082;-86
2022/07/25 01:00:09;;;;;;;0.10;0.10;;;23.10;68.40;;;;;;4931528;29;20031;-87
2022/07/25 01:02:35;;;;;;;0.28;0.28;;;22.70;70.30;;;;;;4946330;29;20082;-87
2022/07/25 01:05:32;;;;;;;0.03;0.03;;;22.50;71.60;;;;;;4947090;29;20035;-81
2022/07/25 01:07:58;;;;;;;0.13;0.13;;;22.60;71.80;;;;;;4928611;29;20563;-87
2022/07/25 01:10:24;;;;;;;0.30;0.30;;;22.50;72.20;;;;;;4944265;29;20147;-87
2022/07/25 01:12:52;;;;;;;0.17;0.17;;;22.70;71.90;;;;;;4942120;29;20041;-87
2022/07/25 01:15:20;;;;;;;0.22;0.22;;;22.60;71.20;;;;;;4929334;29;20034;-86
2022/07/25 01:17:45;;;;;;;0.00;0.00;;;22.80;70.10;;;;;;4946344;29;20176;-87
2022/07/25 01:20:19;;;;;;;0.63;0.20;;;22.80;69.40;;;;;;4928854;29;20046;-86
2022/07/25 01:22:45;;;;;;;0.10;0.10;;;22.80;68.10;;;;;;4945245;28;20086;-85
2022/07/25 01:25:13;;;;;;;0.03;0.03;;;22.80;68.50;;;;;;4947853;29;20643;-85
2022/07/25 01:27:39;;;;;;;0.65;0.20;;;22.90;67.30;;;;;;4945857;29;20392;-86
2022/07/25 01:30:06;;;;;;;;;;;23.00;66.60;;;;;;4947872;28;20031;-87
2022/07/25 01:32:32;;;;;;;0.20;0.20;;;23.00;66.70;;;;;;4944902;29;19918;-86
2022/07/25 01:34:58;;;;;;;0.63;0.45;;;23.00;67.00;;;;;;4944118;29;20179;-86
2022/07/25 01:37:24;;;;;;;0.00;0.00;;;23.00;67.00;;;;;;4946545;29;20118;-88
2022/07/25 01:39:49;;;;;;;0.33;0.30;;;22.90;68.20;;;;;;4946761;29;20101;-88
2022/07/25 01:42:15;;;;;;;2.43;0.50;;;22.80;68.30;;;;;;4945356;29;20027;-88
2022/07/25 01:44:40;;;;;;;0.40;0.40;;;22.80;68.80;;;;;;4946816;29;20975;-89
2022/07/25 01:47:06;;;;;;;0.27;0.27;;;22.70;69.30;;;;;;4935978;29;20343;-90
2022/07/25 01:49:32;;;;;;;0.00;0.00;;;22.70;69.80;;;;;;4948097;28;20499;-89
2022/07/25 01:51:58;;;;;;;0.30;0.30;;;22.60;70.10;;;;;;4945565;29;20039;-85
2022/07/25 01:54:23;;;;;;;0.20;0.20;;;22.50;70.60;;;;;;4945194;29;20031;-85
2022/07/25 01:56:49;;;;;;;1.17;0.57;;;22.50;70.70;;;;;;4943621;29;20200;-85
2022/07/25 01:59:15;;;;;;;0.40;0.40;;;22.40;71.20;;;;;;4943905;28;20031;-86
2022/07/25 02:01:42;;;;;;;0.32;0.32;;;22.50;71.70;;;;;;4944722;29;20073;-86
2022/07/25 02:04:07;;;;;;;0.65;0.65;;;22.40;72.50;;;;;;4944301;29;20035;-87
2022/07/25 02:06:34;;;;;;;0.50;0.33;;;22.40;72.70;;;;;;4945155;29;20031;-87
2022/07/25 02:09:00;;;;;;;0.88;0.50;;;22.40;72.80;;;;;;4946527;29;20090;-87
2022/07/25 02:11:26;;;;;;;0.10;0.10;;;22.40;73.50;;;;;;4925940;29;20054;-87
2022/07/25 02:13:52;;;;;;;1.37;0.40;;;22.30;74.00;;;;;;4926633;29;20031;-87
2022/07/25 02:16:17;;;;;;;0.53;0.33;;;22.30;74.80;;;;;;4942631;29;20047;-79
2022/07/25 02:18:44;;;;;;;0.30;0.23;;;22.30;75.50;;;;;;4943066;29;20141;-87
2022/07/25 02:21:10;;;;;;;;;;;22.20;76.20;;;;;;4945157;29;22284;-86
2022/07/25 02:23:36;;;;;;;0.65;0.60;;;22.20;76.60;;;;;;4946109;29;19914;-88
2022/07/25 02:26:02;;;;;;;0.30;0.25;;;22.20;77.20;;;;;;4944528;29;20067;-87
2022/07/25 02:28:28;;;;;;;0.43;0.17;;;22.20;77.90;;;;;;4925774;29;20090;-89
2022/07/25 02:30:54;;;;;;;0.17;0.13;;;22.10;78.20;;;;;;4940868;29;20051;-87
2022/07/25 02:33:19;;;;;;;8.33;0.93;;;22.10;78.60;;;;;;4940930;28;20487;-87
2022/07/25 02:36:16;;;;;;;0.30;0.30;;;22.00;79.20;;;;;;4945790;29;20049;-79
2022/07/25 02:38:42;;;;;;;0.22;0.22;;;22.00;79.60;;;;;;4926815;29;20061;-88
2022/07/25 02:41:08;;;;;;;0.70;0.50;;;22.00;80.20;;;;;;4928988;29;20499;-88
2022/07/25 02:43:33;;;;;;;1.00;0.90;;;22.00;80.70;;;;;;4942084;29;20050;-87
2022/07/25 02:45:59;;;;;;;0.30;0.30;;;21.90;81.40;;;;;;4944798;29;20059;-86
2022/07/25 02:48:25;;;;;;;0.20;0.20;;;21.80;82.10;;;;;;4924805;29;20031;-86
2022/07/25 02:50:50;;;;;;;0.50;0.50;;;21.70;83.20;;;;;;4945434;29;20046;-76
2022/07/25 02:53:16;;;;;;;0.10;0.10;;;21.60;84.20;;;;;;4945828;29;20035;-76
2022/07/25 02:55:42;;;;;;;0.57;0.57;;;21.60;85.00;;;;;;4943887;29;20522;-76
2022/07/25 02:58:07;;;;;;;0.43;0.43;;;21.60;85.30;;;;;;4943206;29;20515;-76
2022/07/25 03:00:33;;;;;;;0.40;0.40;;;21.60;85.70;;;;;;4943606;28;20438;-76
2022/07/25 03:02:59;;;;;;;0.00;0.00;;;21.50;86.70;;;;;;4944202;29;20115;-76
2022/07/25 03:05:25;;;;;;;0.20;0.20;;;21.50;87.60;;;;;;4941163;29;20303;-77
2022/07/25 03:07:50;;;;;;;0.10;0.10;;;21.50;88.20;;;;;;4943544;29;20668;-77
2022/07/25 03:10:16;;;;;;;0.00;0.00;;;21.40;89.00;;;;;;4943778;29;20097;-77
2022/07/25 03:12:43;;;;;;;0.03;0.03;;;21.30;90.00;;;;;;4926795;29;20499;-77
2022/07/25 03:15:11;;;;;;;1.08;0.45;;;21.30;90.40;;;;;;4943089;29;20027;-77
2022/07/25 03:17:37;;;;;;;0.15;0.15;;;21.20;90.90;;;;;;4942412;29;20097;-76
2022/07/25 03:20:04;;;;;;;0.28;0.28;;;21.20;91.10;;;;;;4943238;29;20501;-76
2022/07/25 03:22:30;;;;;;;0.43;0.20;;;21.20;91.60;;;;;;4943279;29;20087;-76
2022/07/25 03:24:56;;;;;;;0.10;0.10;;;21.20;91.80;;;;;;4944710;29;20043;-76
2022/07/25 03:27:21;;;;;;;0.10;0.10;;;21.20;92.00;;;;;;4941530;29;20121;-76
2022/07/25 03:29:47;;;;;;;0.30;0.30;;;21.10;92.30;;;;;;4943613;29;20158;-76
2022/07/25 03:32:13;;;;;;;0.40;0.40;;;21.10;92.40;;;;;;4922939;29;20435;-76
2022/07/25 03:34:39;;;;;;;0.40;0.30;;;21.10;92.50;;;;;;4943456;29;20027;-77
2022/07/25 03:37:04;;;;;;;0.10;0.10;;;21.10;92.80;;;;;;4942178;29;20689;-77
2022/07/25 03:39:30;;;;;;;0.17;0.17;;;21.10;92.80;;;;;;4943685;29;20122;-76
2022/07/25 03:41:56;;;;;;;0.20;0.20;;;21.10;93.00;;;;;;4943798;29;20419;-75
2022/07/25 03:44:23;;;;;;;0.53;0.50;;;21.00;93.30;;;;;;4943317;29;20038;-79
2022/07/25 03:46:50;;;;;;;0.25;0.25;;;21.00;93.20;;;;;;4947792;28;20043;-78
2022/07/25 03:49:16;;;;;;;0.10;0.10;;;20.90;93.50;;;;;;4947883;29;20043;-90
2022/07/25 03:51:42;;;;;;;1.25;0.52;;;20.90;93.70;;;;;;4947248;29;20414;-83
2022/07/25 03:54:12;;;;;;;0.00;0.00;;;20.90;94.00;;;;;;4949246;29;20082;-84
2022/07/25 03:56:43;;;;;;;0.28;0.28;;;21.40;92.60;;;;;;4945793;29;20490;-84
2022/07/25 03:59:12;;;;;;;0.20;0.20;;;21.60;91.90;;;;;;4934322;28;20089;-84
2022/07/25 04:01:38;;;;;;;0.63;0.63;;;21.70;91.20;;;;;;4951496;28;20120;-84
2022/07/25 04:04:04;;;;;;;0.10;0.10;;;21.50;91.40;;;;;;4944451;29;20478;-87
2022/07/25 04:06:30;;;;;;;0.30;0.30;;;21.50;91.30;;;;;;4945834;29;20050;-81
2022/07/25 04:08:57;;;;;;;0.10;0.10;;;21.50;91.40;;;;;;4944851;29;20071;-82
2022/07/25 04:11:23;;;;;;;0.00;0.00;;;21.40;91.60;;;;;;4929098;29;20058;-82
2022/07/25 04:13:49;;;;;;;2.20;1.55;;;21.40;91.40;;;;;;4946862;29;20043;-81
2022/07/25 04:16:15;;;;;;;5.13;0.20;;;21.40;91.40;;;;;;4944504;29;20612;-82
2022/07/25 04:18:41;;;;;;;0.45;0.43;;;21.10;92.10;;;;;;4944390;29;20034;-83
2022/07/25 04:21:07;;;;;;;0.22;0.22;;;20.80;93.00;;;;;;4934031;29;20042;-82
2022/07/25 04:23:33;;;;;;;0.93;0.85;;;20.80;93.20;;;;;;4946809;29;20459;-84
2022/07/25 04:25:59;;;;;;;0.23;0.23;;;20.60;93.80;;;;;;4947794;29;20046;-82
2022/07/25 04:28:26;;;;;;;0.47;0.47;;;20.70;93.60;;;;;;4947616;29;20031;-82
2022/07/25 04:30:52;;;;;;;0.10;0.10;;;20.80;93.10;;;;;;4947798;29;20051;-81
2022/07/25 04:33:18;;;;;;;0.22;0.22;;;20.60;93.50;;;;;;4947957;29;20022;-81
2022/07/25 04:35:44;;;;;;;3.70;0.33;;;20.60;93.60;;;;;;4948344;29;20039;-81
2022/07/25 04:38:10;;;;;;;0.25;0.25;;;20.60;93.70;;;;;;4946277;29;20027;-80
2022/07/25 04:40:37;;;;;;;0.35;0.35;;;20.60;93.50;;;;;;4947563;29;20479;-82
2022/07/25 04:43:03;;;;;;;0.10;0.10;;;20.60;93.50;;;;;;4947754;29;20128;-82
2022/07/25 04:45:29;;;;;;;;;;;21.10;92.60;;;;;;4948892;29;20039;-82
2022/07/25 04:47:55;;;;;;;0.40;0.40;;;20.80;92.50;;;;;;4947345;29;20024;-81
2022/07/25 04:50:21;;;;;;;12.63;2.00;;;20.80;92.80;;;;;;4946977;29;20043;-82
2022/07/25 04:52:46;;;;;;;0.10;0.03;;;21.00;92.50;;;;;;4947716;29;20123;-81
2022/07/25 04:55:12;;;;;;;0.10;0.10;;;20.90;92.70;;;;;;4944833;29;20114;-81
2022/07/25 04:57:38;;;;;;;0.27;0.27;;;20.90;92.20;;;;;;4947249;28;20090;-84
2022/07/25 05:00:06;;;;;;;1.30;0.87;;;21.30;91.40;;;;;;4947871;28;20030;-81
2022/07/25 05:02:32;;;;;;;0.30;0.30;;;21.80;89.80;;;;;;4945098;29;20047;-82
2022/07/25 05:04:58;;;;;;;0.73;0.45;;;21.80;89.10;;;;;;4947946;29;20503;-83
2022/07/25 05:07:24;;;;;;;0.33;0.30;;;21.60;90.00;;;;;;4947272;29;20034;-83
2022/07/25 05:09:50;;;;;;;0.20;0.20;;;21.80;89.80;;;;;;4945706;29;20038;-83
2022/07/25 05:12:15;;;;;;;0.57;0.57;;;22.00;88.80;;;;;;4913089;29;20047;-80
2022/07/25 05:14:41;;;;;;;0.13;0.13;;;22.00;88.10;;;;;;4945640;29;20051;-82
2022/07/25 05:17:07;;;;;;;0.20;0.20;;;22.20;87.40;;;;;;4946875;29;20451;-81
2022/07/25 05:19:32;;;;;;;0.13;0.13;;;22.40;86.50;;;;;;4915344;29;20028;-88
2022/07/25 05:21:58;;;;;;;0.30;0.30;;;22.60;85.20;;;;;;4947814;29;20073;-90
2022/07/25 05:24:24;;;;;;;0.40;0.23;;;23.30;83.20;;;;;;4949956;29;20035;-89
2022/07/25 05:26:50;;;;;;;1.50;0.67;;;22.80;82.30;;;;;;4947380;29;20046;-84
2022/07/25 05:29:15;;;;;;;1.10;0.57;;;22.80;84.20;;;;;;4945600;29;20373;-86
2022/07/25 05:31:41;;;;;;;0.20;0.13;;;23.60;81.10;;;;;;4946505;29;20039;-85
2022/07/25 05:34:07;;;;;;;0.47;0.43;;;24.30;78.10;;;;;;4917696;29;20062;-86
2022/07/25 05:36:33;;;;;;;0.10;0.10;;;23.60;79.00;;;;;;4945025;29;20122;-86
2022/07/25 05:38:59;;;;;;;0.20;0.20;;;24.10;78.50;;;;;;4927163;29;20050;-86
2022/07/25 05:41:25;;;;;;;0.10;0.10;;;24.50;76.70;;;;;;4944992;29;20784;-86
2022/07/25 05:43:51;;;;;;;0.13;0.13;;;24.60;76.50;;;;;;4947983;29;20028;-88
2022/07/25 05:46:17;;;;;;;0.35;0.35;;;23.50;78.90;;;;;;4948094;29;20511;-87
2022/07/25 05:48:43;;;;;;;0.15;0.15;;;23.00;81.20;;;;;;4947713;29;20115;-89
2022/07/25 05:51:09;;;;;;;0.65;0.55;;;22.80;82.10;;;;;;4947822;29;20145;-87
2022/07/25 05:53:35;;;;;;;0.65;0.28;;;22.70;82.50;;;;;;4947928;29;20027;-90
2022/07/25 05:56:01;;;;;;;0.17;0.17;;;22.60;82.90;;;;;;4948028;29;20066;-86
2022/07/25 05:58:27;;;;;;;0.13;0.10;;;23.20;82.60;;;;;;4949351;29;20519;-92
2022/07/25 06:00:53;;;;;;;0.00;0.00;;;23.30;81.10;;;;;;4963517;28;20355;-87
2022/07/25 06:03:19;;;;;;;0.73;0.50;;;23.20;81.20;;;;;;4947797;29;20591;-85
2022/07/25 06:05:45;;;;;;;0.30;0.30;;;23.00;82.40;;;;;;4944834;29;20027;-84
2022/07/25 06:08:12;;;;;;;;;;;23.40;82.30;;;;;;4945440;28;20112;-86
2022/07/25 06:10:38;;;;;;;0.10;0.10;;;24.20;79.50;;;;;;4946269;29;20000;-86
2022/07/25 06:13:03;;;;;;;0.10;0.10;;;25.10;75.50;;;;;;4946703;29;20677;-88
2022/07/25 06:15:29;;;;;;;0.10;0.10;;;25.50;74.20;;;;;;4947542;29;20039;-85
2022/07/25 06:17:55;;;;;;;0.30;0.30;;;24.80;75.50;;;;;;4929861;29;20385;-85
2022/07/25 06:20:21;;;;;;;0.28;0.08;;;26.20;72.80;;;;;;4947814;29;20070;-85
2022/07/25 06:22:47;;;;;;;2.40;0.75;;;26.30;71.10;;;;;;4946694;29;20058;-85
2022/07/25 06:25:13;;;;;;;0.10;0.10;;;26.50;71.60;;;;;;4947464;29;20023;-85
2022/07/25 06:27:39;;;;;;;0.68;0.40;;;26.00;71.60;;;;;;4946791;29;20039;-86
2022/07/25 06:30:07;;;;;;;0.45;0.20;;;27.20;69.60;;;;;;4947460;29;20459;-83
2022/07/25 06:32:32;;;;;;;0.93;0.25;;;27.00;68.00;;;;;;4947415;29;20761;-84
2022/07/25 06:34:58;;;;;;;0.20;0.20;;;26.50;70.80;;;;;;4946262;29;20510;-85
2022/07/25 06:37:24;;;;;;;0.30;0.30;;;25.90;71.20;;;;;;4947093;29;20086;-84
2022/07/25 06:39:50;;;;;;;5.68;1.00;;;25.20;72.60;;;;;;4945148;29;20046;-86
2022/07/25 06:42:16;;;;;;;0.10;0.10;;;25.50;73.80;;;;;;4942129;29;20035;-83
2022/07/25 06:44:42;;;;;;;0.75;0.30;;;27.00;69.90;;;;;;4943867;29;20031;-83
2022/07/25 06:47:11;;;;;;;0.30;0.30;;;27.90;68.30;;;;;;4944920;29;20027;-84
2022/07/25 06:49:38;;;;;;;0.20;0.20;;;28.90;65.40;;;;;;4928635;29;20031;-84
2022/07/25 06:52:05;;;;;;;0.10;0.10;;;29.60;63.40;;;;;;4945001;29;20047;-84
2022/07/25 06:54:30;;;;;;;0.30;0.20;;;29.10;63.50;;;;;;4945631;29;20023;-85
2022/07/25 06:56:56;;;;;;;1.45;0.93;;;28.90;64.60;;;;;;4945108;29;20031;-84
2022/07/25 06:59:22;;;;;;;0.73;0.73;;;29.50;63.60;;;;;;4930728;29;20086;-84
2022/07/25 07:01:48;;;;;;;3.97;1.20;;;29.30;64.30;;;;;;4900380;29;20031;-84
2022/07/25 07:04:14;;;;;;;0.20;0.20;;;29.30;63.30;;;;;;4945910;29;20825;-83
2022/07/25 07:06:39;;;;;;;0.10;0.10;;;27.60;65.90;;;;;;4920373;29;20081;-83
2022/07/25 07:09:05;;;;;;;0.03;0.03;;;26.70;68.20;;;;;;4928728;29;20077;-83
2022/07/25 07:11:33;;;;;;;0.10;0.10;;;26.20;70.00;;;;;;4928124;29;20121;-83
2022/07/25 07:13:59;;;;;;;0.13;0.10;;;26.10;69.80;;;;;;4927902;29;20039;-83
2022/07/25 07:16:25;;;;;;;0.10;0.10;;;25.30;72.20;;;;;;4911662;29;20054;-84
2022/07/25 07:18:51;;;;;;;0.52;0.13;;;24.70;74.20;;;;;;4944896;29;20027;-83
2022/07/25 07:21:16;;;;;;;0.25;0.17;;;24.50;74.60;;;;;;4944509;28;20047;-83
2022/07/25 07:23:42;;;;;;;0.10;0.10;;;24.40;76.40;;;;;;4927641;29;20921;-83
2022/07/25 07:26:08;;;;;;;0.30;0.30;;;23.70;78.00;;;;;;4910966;29;20286;-83
2022/07/25 07:28:33;;;;;;;5.37;0.40;;;23.60;79.20;;;;;;4896317;29;20597;-83
2022/07/25 07:30:59;;;;;;;0.00;0.00;;;24.20;78.70;;;;;;4927929;29;20121;-83
2022/07/25 07:33:25;;;;;;;0.73;0.50;;;24.10;78.60;;;;;;4945132;29;20037;-83
2022/07/25 07:35:51;;;;;;;0.57;0.13;;;23.90;79.20;;;;;;4945211;29;20027;-83
2022/07/25 07:38:18;;;;;;;0.00;0.00;;;24.50;78.20;;;;;;4944752;29;20030;-84
2022/07/25 07:40:43;;;;;;;0.20;0.20;;;24.60;76.80;;;;;;4942520;29;20847;-83
2022/07/25 07:43:09;;;;;;;0.30;0.20;;;24.50;76.80;;;;;;4922854;29;20126;-83
2022/07/25 07:45:35;;;;;;;0.73;0.43;;;24.90;75.90;;;;;;4944940;29;20054;-84
2022/07/25 07:48:01;;;;;;;0.35;0.35;;;26.30;75.20;;;;;;4944091;29;20035;-84
2022/07/25 07:50:27;;;;;;;0.60;0.37;;;27.00;70.90;;;;;;4915321;29;20114;-81
2022/07/25 07:52:54;;;;;;;0.30;0.30;;;29.20;68.00;;;;;;4944705;29;20290;-80
2022/07/25 07:58:06;;;;;;;0.30;0.30;;;28.70;64.10;;;;;;4917785;29;20118;-81
2022/07/25 08:00:34;;;;;;;0.25;0.25;;;26.50;69.90;;;;;;4928990;29;20149;-80
2022/07/25 08:03:01;;;;;;;0.68;0.55;;;25.20;74.00;;;;;;4942012;29;20051;-80
2022/07/25 08:05:28;;;;;;;;;;;24.90;75.50;;;;;;4945769;29;20071;-80
2022/07/25 08:07:54;;;;;;;0.80;0.43;;;25.30;75.10;;;;;;4945852;29;19910;-80
2022/07/25 08:10:22;;;;;;;0.00;0.00;;;25.60;74.10;;;;;;4928337;29;20503;-80
2022/07/25 08:12:49;;;;;;;0.10;0.10;;;25.70;73.50;;;;;;4945626;29;20535;-80
2022/07/25 08:15:15;;;;;;;;;;;25.10;74.30;;;;;;4946531;29;20025;-80
2022/07/25 08:17:40;;;;;;;;;;;24.70;75.50;;;;;;4945953;29;19958;-80
2022/07/25 08:20:07;;;;;;;0.63;0.22;;;24.30;77.70;;;;;;4945980;29;19961;-80
2022/07/25 08:22:39;;;;;;;;;;;24.00;78.70;;;;;;4946510;29;20066;-81
2022/07/25 08:25:07;;;;;;;0.10;0.10;;;24.10;78.70;;;;;;4934745;29;20537;-81
2022/07/25 08:27:32;;;;;;;1.80;0.90;;;24.20;78.90;;;;;;4945652;29;20118;-80
2022/07/25 08:30:00;;;;;;;0.30;0.25;;;23.90;79.10;;;;;;4945523;29;20098;-80
2022/07/25 08:32:27;;;;;;;0.10;0.10;;;24.30;79.00;;;;;;4946537;28;20461;-80
2022/07/25 08:34:53;;;;;;;0.40;0.40;;;24.50;78.60;;;;;;4948677;29;20133;-81
2022/07/25 08:37:19;;;;;;;0.60;0.45;;;25.70;78.60;;;;;;4930893;29;20051;-81
2022/07/25 08:39:45;;;;;;;0.65;0.45;;;30.80;65.80;;;;;;4948861;29;20039;-81
2022/07/25 08:42:10;;;;;;;0.17;0.10;;;31.10;62.90;;;;;;4948715;29;20027;-81
2022/07/25 08:44:41;;;;;;;0.10;0.10;;;30.20;62.90;;;;;;4948852;29;20047;-81
2022/07/25 08:47:08;;;;;;;0.00;0.00;;;30.70;63.00;;;;;;4948952;29;20023;-81
2022/07/25 08:49:35;;;;;;;1.48;0.52;;;32.40;58.40;;;;;;4930987;29;20051;-82
2022/07/25 08:52:03;;;;;;;;;;;33.30;57.30;;;;;;4948636;29;20035;-81
2022/07/25 08:54:30;;;;;;;0.32;0.32;;;30.00;62.10;;;;;;4948718;29;19910;-82
2022/07/25 08:56:56;;;;;;;0.20;0.20;;;28.10;65.00;;;;;;4948376;29;20518;-82
2022/07/25 08:59:21;;;;;;;0.38;0.20;;;27.80;66.50;;;;;;4954677;28;20105;-80
2022/07/25 09:01:47;;;;;;;0.45;0.20;;;28.10;66.60;;;;;;4950526;28;20094;-80
2022/07/25 09:04:13;;;;;;;0.17;0.17;;;28.10;65.80;;;;;;4930428;29;20074;-81
2022/07/25 09:06:49;;;;;;;0.15;0.15;;;27.40;67.20;;;;;;4947660;29;20035;-81
2022/07/25 09:09:15;;;;;;;1.77;0.35;;;27.40;67.80;;;;;;4930868;29;20086;-81
2022/07/25 09:11:41;;;;;;;0.75;0.57;;;27.40;68.70;;;;;;4930813;29;20043;-81
2022/07/25 09:14:10;;;;;;;0.15;0.15;;;27.40;67.60;;;;;;4948330;29;20038;-82
2022/07/25 09:16:42;;;;;;;0.40;0.35;;;27.40;67.30;;;;;;4947730;29;20043;-81
2022/07/25 09:19:16;;;;;;;0.38;0.32;;;27.30;67.90;;;;;;4948143;29;20545;-82
2022/07/25 09:21:44;;;;;;;0.55;0.35;;;26.80;69.40;;;;;;4947815;29;20046;-81
2022/07/25 09:24:16;;;;;;;1.23;0.50;;;26.70;69.30;;;;;;4930372;29;20031;-81
2022/07/25 09:26:50;;;;;;;1.10;0.73;;;26.70;69.40;;;;;;4930495;29;20035;-81
2022/07/25 09:29:25;;;;;;;0.55;0.20;;;26.80;70.40;;;;;;4930415;29;20070;-81
2022/07/25 09:31:53;;;;;;;0.38;0.38;;;27.40;69.10;;;;;;4947676;29;20078;-80
2022/07/25 09:34:36;;;;;;;2.40;1.40;;;27.40;68.70;;;;;;4948086;29;20506;-81
2022/07/25 09:37:07;;;;;;;0.13;0.10;;;26.70;69.90;;;;;;4948060;29;20110;-81
2022/07/25 09:39:35;;;;;;;0.10;0.10;;;26.50;70.50;;;;;;4948029;29;20050;-80
2022/07/25 09:42:01;;;;;;;0.10;0.10;;;27.00;70.10;;;;;;4947947;29;20035;-80
2022/07/25 09:44:29;;;;;;;3.05;0.20;;;26.80;70.60;;;;;;4929492;29;20023;-81
2022/07/25 09:46:57;;;;;;;0.28;0.28;;;27.10;70.20;;;;;;4947442;29;20090;-81
2022/07/25 09:49:25;;;;;;;0.70;0.68;;;26.90;70.40;;;;;;4947367;29;20058;-81
2022/07/25 09:51:52;;;;;;;0.10;0.10;;;27.50;68.30;;;;;;4930205;29;20039;-81
2022/07/25 09:54:18;;;;;;;0.10;0.10;;;28.00;67.00;;;;;;4948070;29;20098;-81
2022/07/25 09:56:46;;;;;;;0.10;0.10;;;28.40;67.30;;;;;;4929757;29;20103;-81
2022/07/25 09:59:12;;;;;;;0.10;0.00;;;28.70;66.90;;;;;;4951877;28;20374;-81
2022/07/25 10:01:46;;;;;;;0.20;0.15;;;28.50;66.40;;;;;;4949256;28;20574;-82
2022/07/25 10:04:20;;;;;;;0.32;0.32;;;28.20;67.10;;;;;;4947343;29;20027;-82
2022/07/25 10:07:17;;;;;;;0.03;0.03;;;27.50;68.10;;;;;;4947166;29;20043;-82
2022/07/25 10:09:48;;;;;;;0.10;0.10;;;27.40;69.60;;;;;;4931861;29;20089;-82
2022/07/25 10:12:23;;;;;;;1.00;0.30;;;26.90;69.60;;;;;;4946788;29;20218;-82
2022/07/25 10:15:07;;;;;;;0.03;0.03;;;26.40;70.70;;;;;;4944003;29;20446;-82
2022/07/25 10:17:35;;;;;;;0.32;0.32;;;26.10;72.00;;;;;;4945490;29;20058;-81
2022/07/25 10:20:02;;;;;;;0.15;0.15;;;26.10;72.30;;;;;;4945601;29;20046;-81
2022/07/25 10:22:42;;;;;;;0.00;0.00;;;26.00;72.80;;;;;;4943756;29;20073;-81
2022/07/25 10:25:14;;;;;;;1.35;0.68;;;25.80;73.50;;;;;;4927023;29;20035;-80
2022/07/25 10:27:57;;;;;;;0.20;0.20;;;25.70;73.50;;;;;;4945417;29;20030;-81
2022/07/25 10:30:35;;;;;;;0.30;0.30;;;25.70;73.30;;;;;;4927273;29;20110;-81
2022/07/25 10:33:04;;;;;;;1.55;0.28;;;26.00;73.10;;;;;;4945199;29;20110;-81
2022/07/25 10:35:30;;;;;;;0.35;0.35;;;26.20;73.00;;;;;;4913068;29;20020;-81
2022/07/25 10:37:57;;;;;;;1.17;0.30;;;26.30;72.30;;;;;;4915340;29;20083;-81
2022/07/25 10:40:29;;;;;;;0.55;0.52;;;26.30;72.70;;;;;;4945275;29;20034;-81
2022/07/25 10:43:24;;;;;;;0.32;0.25;;;26.50;72.10;;;;;;4945806;29;20077;-79
2022/07/25 10:45:52;;;;;;;0.32;0.32;;;25.90;71.70;;;;;;4933276;29;20059;-78
2022/07/25 10:48:25;;;;;;;0.35;0.25;;;25.40;74.00;;;;;;4944992;29;20109;-77
2022/07/25 10:50:59;;;;;;;0.15;0.15;;;25.40;74.30;;;;;;4939757;29;20103;-77
2022/07/25 10:53:34;;;;;;;0.75;0.52;;;25.10;74.10;;;;;;4943470;29;20031;-77
2022/07/25 10:56:09;;;;;;;0.98;0.40;;;25.20;75.20;;;;;;4944160;28;20030;-76
2022/07/25 10:58:45;;;;;;;0.22;0.22;;;24.90;75.50;;;;;;4944515;29;20031;-76
2022/07/25 11:01:13;;;;;;;0.35;0.35;;;25.40;75.30;;;;;;4922525;29;20035;-76
2022/07/25 11:03:40;;;;;;;0.40;0.40;;;25.50;74.50;;;;;;4943942;29;20038;-76
2022/07/25 11:06:06;;;;;;;0.20;0.10;;;25.40;74.70;;;;;;4944009;29;20050;-77
2022/07/25 11:08:34;;;;;;;0.40;0.40;;;25.50;73.90;;;;;;4945447;29;20027;-77
2022/07/25 11:11:00;;;;;;;0.13;0.13;;;25.30;74.90;;;;;;4945524;29;20783;-80
2022/07/25 11:13:26;;;;;;;0.10;0.10;;;25.80;74.00;;;;;;4927786;29;20063;-79
2022/07/25 11:15:57;;;;;;;1.25;0.50;;;26.00;73.50;;;;;;4927339;29;20511;-80
2022/07/25 11:18:33;;;;;;;0.10;0.10;;;26.20;73.70;;;;;;4943344;29;20035;-79
2022/07/25 11:21:00;;;;;;;0.15;0.15;;;26.00;73.50;;;;;;4945582;29;20023;-76
2022/07/25 11:23:26;;;;;;;0.35;0.35;;;26.10;73.50;;;;;;4944472;29;20035;-76
2022/07/25 11:26:02;;;;;;;0.52;0.30;;;26.20;73.10;;;;;;4944939;29;20027;-77
2022/07/25 11:28:39;;;;;;;0.00;0.00;;;26.50;72.60;;;;;;4944981;29;20046;-76
2022/07/25 11:31:06;;;;;;;0.20;0.10;;;26.00;74.10;;;;;;4944203;29;20063;-77
2022/07/25 11:33:32;;;;;;;0.93;0.32;;;25.40;76.00;;;;;;4944694;29;20023;-76
2022/07/25 11:35:58;;;;;;;0.30;0.10;;;25.60;76.40;;;;;;4913274;29;20028;-76
2022/07/25 11:38:25;;;;;;;0.00;0.00;;;25.80;75.50;;;;;;4945050;29;20035;-76
2022/07/25 11:40:51;;;;;;;0.30;0.17;;;26.40;74.20;;;;;;4926913;29;20042;-76
2022/07/25 11:43:21;;;;;;;0.22;0.10;;;26.40;74.30;;;;;;4942831;29;20114;-76
2022/07/25 11:46:01;;;;;;;0.45;0.15;;;26.70;73.40;;;;;;4941402;29;20034;-76
2022/07/25 11:48:32;;;;;;;0.43;0.43;;;26.80;72.30;;;;;;4944054;29;20023;-77
2022/07/25 11:51:08;;;;;;;0.20;0.20;;;27.10;71.40;;;;;;4945401;29;20067;-78
2022/07/25 11:53:42;;;;;;;0.22;0.22;;;27.20;70.90;;;;;;4945080;29;20031;-77
2022/07/25 11:56:13;;;;;;;0.10;0.10;;;27.20;70.50;;;;;;4928614;29;20031;-79
2022/07/25 11:58:39;;;;;;;0.15;0.15;;;27.20;70.70;;;;;;4945522;28;20058;-77
2022/07/25 12:01:12;;;;;;;0.13;0.13;;;27.70;70.10;;;;;;4947453;28;20074;-77
2022/07/25 12:03:38;;;;;;;0.22;0.22;;;27.70;69.40;;;;;;4929044;29;20287;-77
2022/07/25 12:06:10;;;;;;;0.28;0.28;;;27.20;68.40;;;;;;4946375;28;20515;-77
2022/07/25 12:08:38;;;;;;;0.22;0.17;;;27.80;68.30;;;;;;4914792;29;20071;-76
2022/07/25 12:11:14;;;;;;;0.17;0.17;;;27.70;68.30;;;;;;4947837;29;20162;-77
2022/07/25 12:13:40;;;;;;;0.40;0.40;;;28.30;66.50;;;;;;4948123;29;20047;-77
2022/07/25 12:16:06;;;;;;;0.20;0.20;;;28.50;66.60;;;;;;4947729;29;20263;-77
2022/07/25 12:18:31;;;;;;;0.28;0.28;;;28.80;66.40;;;;;;4948235;29;20042;-77
2022/07/25 12:20:57;;;;;;;0.20;0.20;;;29.00;65.70;;;;;;4908320;29;20055;-77
2022/07/25 12:23:22;;;;;;;0.10;0.10;;;28.70;64.40;;;;;;4929222;29;20080;-77
2022/07/25 12:25:48;;;;;;;0.00;0.00;;;28.10;66.00;;;;;;4913601;29;20037;-77
2022/07/25 12:28:14;;;;;;;0.75;0.40;;;28.40;66.10;;;;;;4947915;29;20070;-76
2022/07/25 12:30:42;;;;;;;0.00;0.00;;;28.50;66.60;;;;;;4948055;29;20636;-76
2022/07/25 12:33:09;;;;;;;0.10;0.10;;;28.60;65.50;;;;;;4948249;29;20683;-76
2022/07/25 12:35:38;;;;;;;0.40;0.40;;;28.40;65.30;;;;;;4915142;29;20039;-77
2022/07/25 12:38:04;;;;;;;0.13;0.13;;;27.70;65.90;;;;;;4948583;29;20458;-77
2022/07/25 12:40:30;;;;;;;0.35;0.25;;;27.90;65.20;;;;;;4948236;29;20027;-77
2022/07/25 12:42:56;;;;;;;2.83;0.90;;;28.00;65.30;;;;;;4947494;29;20047;-77
2022/07/25 12:45:22;;;;;;;0.10;0.10;;;28.00;64.70;;;;;;4947462;29;20079;-77
2022/07/25 12:47:48;;;;;;;0.57;0.25;;;27.80;65.50;;;;;;4947827;29;20529;-77
2022/07/25 12:50:15;;;;;;;0.30;0.30;;;28.00;65.10;;;;;;4930142;29;20055;-76
2022/07/25 12:52:41;;;;;;;0.20;0.20;;;28.50;65.60;;;;;;4947573;29;20074;-77